createdAt,value
2023-03-14T00:03:24.878Z,81.52
2023-03-14T00:08:26.190Z,81.38
2023-03-14T00:13:27.498Z,81.35
2023-03-14T00:18:28.819Z,81.41
2023-03-14T00:23:30.094Z,82.94
2023-03-14T00:28:31.314Z,82.95
2023-03-14T00:33:32.623Z,85.06
2023-03-14T00:38:33.874Z,84.41
2023-03-14T00:43:35.127Z,85.74
2023-03-14T00:48:36.344Z,85.87
2023-03-14T00:53:38.027Z,83.98
2023-03-14T00:58:39.389Z,82.58
2023-03-14T01:03:40.697Z,82.50
2023-03-14T01:08:41.971Z,84.31
2023-03-14T01:13:43.294Z,85.22
2023-03-14T01:18:44.722Z,85.75
2023-03-14T01:23:46.089Z,84.80
2023-03-14T01:28:47.387Z,85.71
2023-03-14T01:33:48.672Z,85.44
2023-03-14T01:38:49.996Z,85.16
2023-03-14T01:43:51.274Z,86.36
2023-03-14T01:48:52.543Z,87.42
2023-03-14T01:53:53.882Z,88.05
2023-03-14T01:58:55.225Z,88.77
2023-03-14T02:03:56.560Z,88.40
2023-03-14T02:08:57.946Z,89.01
2023-03-14T02:13:59.242Z,88.59
2023-03-14T02:19:00.521Z,88.56
2023-03-14T02:24:01.793Z,88.47
2023-03-14T02:29:03.356Z,88.62
2023-03-14T02:34:04.708Z,88.91
2023-03-14T02:39:06.029Z,89.52
2023-03-14T02:44:07.394Z,89.24
2023-03-14T02:49:08.766Z,89.28
2023-03-14T02:54:10.069Z,89.57
2023-03-14T02:59:11.429Z,89.51
2023-03-14T03:04:12.676Z,89.84
2023-03-14T03:09:14.079Z,89.70
2023-03-14T03:14:15.387Z,89.62
2023-03-14T03:19:18.693Z,89.68
2023-03-14T03:24:19.957Z,89.79
2023-03-14T03:29:21.215Z,88.56
2023-03-14T03:34:22.566Z,87.61
2023-03-14T03:39:23.840Z,87.28
2023-03-14T03:44:25.250Z,87.33
2023-03-14T03:49:26.596Z,86.49
2023-03-14T03:54:27.921Z,86.44
2023-03-14T03:59:29.212Z,86.38
2023-03-14T04:04:30.472Z,86.86
2023-03-14T04:09:31.988Z,86.91
2023-03-14T04:14:33.261Z,86.96
2023-03-14T04:19:34.570Z,87.05
2023-03-14T04:24:35.832Z,87.76
2023-03-14T04:29:37.113Z,87.47
2023-03-14T04:34:38.461Z,87.98
2023-03-14T04:39:39.771Z,87.82
2023-03-14T04:44:41.109Z,87.37
2023-03-14T04:49:42.390Z,87.44
2023-03-14T04:54:43.646Z,87.25
2023-03-14T04:59:45.056Z,87.56
2023-03-14T05:04:46.369Z,87.38
2023-03-14T05:09:47.627Z,86.58
2023-03-14T05:14:48.855Z,86.44
2023-03-14T05:19:50.103Z,86.04
2023-03-14T05:24:51.566Z,86.65
2023-03-14T05:29:52.803Z,86.94
2023-03-14T05:34:54.081Z,87.21
2023-03-14T05:39:55.343Z,86.49
2023-03-14T05:44:56.603Z,86.43
2023-03-14T05:49:57.889Z,85.58
2023-03-14T05:54:59.169Z,85.44
2023-03-14T06:00:00.494Z,84.76
2023-03-14T06:05:01.748Z,84.17
2023-03-14T06:10:02.979Z,83.80
2023-03-14T06:15:04.265Z,82.72
2023-03-14T06:20:05.570Z,82.02
2023-03-14T06:25:06.782Z,82.07
2023-03-14T06:30:08.279Z,81.45
2023-03-14T06:35:09.604Z,81.39
2023-03-14T06:40:11.191Z,80.90
2023-03-14T06:45:12.513Z,80.13
2023-03-14T06:50:13.861Z,79.96
2023-03-14T06:55:15.148Z,79.99
2023-03-14T07:00:16.529Z,79.74
2023-03-14T07:05:17.931Z,79.41
2023-03-14T07:10:19.256Z,79.42
2023-03-14T07:15:20.589Z,79.06
2023-03-14T07:20:21.997Z,78.36
2023-03-14T07:25:23.365Z,77.21
2023-03-14T07:30:24.662Z,77.24
2023-03-14T07:35:25.997Z,76.82
2023-03-14T07:40:27.398Z,76.33
2023-03-14T07:45:28.747Z,76.62
2023-03-14T07:50:30.054Z,76.31
2023-03-14T07:55:31.420Z,76.43
2023-03-14T08:00:32.676Z,75.76
2023-03-14T08:05:33.988Z,75.37
2023-03-14T08:10:35.294Z,74.42
2023-03-14T08:15:37.936Z,74.24
2023-03-14T08:20:39.218Z,73.06
2023-03-14T08:25:40.636Z,73.30
2023-03-14T08:30:44.332Z,72.51
2023-03-14T08:35:47.128Z,72.00
2023-03-14T08:40:48.485Z,71.29
2023-03-14T08:45:49.827Z,71.78
2023-03-14T08:50:51.110Z,71.88
2023-03-14T08:55:52.328Z,71.12
2023-03-14T09:00:53.566Z,69.17
2023-03-14T09:05:54.808Z,68.79
2023-03-14T09:10:56.066Z,69.64
2023-03-14T09:15:57.333Z,68.35
2023-03-14T09:20:58.662Z,68.38
2023-03-14T09:25:59.937Z,67.83
2023-03-14T09:31:01.222Z,67.83
2023-03-14T09:36:02.564Z,66.70
2023-03-14T09:41:03.794Z,65.99
2023-03-14T09:46:05.474Z,65.35
2023-03-14T09:51:06.746Z,65.33
2023-03-14T09:56:07.953Z,64.74
2023-03-14T10:01:09.298Z,64.11
2023-03-14T10:06:10.801Z,63.28
2023-03-14T10:11:12.422Z,61.30
2023-03-14T10:16:14.170Z,62.17
2023-03-14T10:21:15.673Z,61.09
2023-03-14T10:26:17.390Z,61.24
2023-03-14T10:31:18.803Z,57.73
2023-03-14T10:36:20.556Z,57.13
2023-03-14T10:41:21.869Z,57.93
2023-03-14T10:46:23.193Z,57.67
2023-03-14T10:51:24.537Z,56.13
2023-03-14T10:56:25.744Z,55.96
2023-03-14T11:01:27.081Z,57.10
2023-03-14T11:06:28.522Z,58.05
2023-03-14T11:11:29.768Z,57.65
2023-03-14T11:16:31.046Z,58.37
2023-03-14T11:21:32.362Z,59.22
2023-03-14T11:26:33.887Z,58.47
2023-03-14T11:31:35.191Z,58.01
2023-03-14T11:36:36.600Z,58.15
2023-03-14T11:41:37.861Z,57.00
2023-03-14T11:46:39.284Z,57.08
2023-03-14T11:51:40.628Z,56.21
2023-03-14T11:56:41.973Z,56.17
2023-03-14T12:01:43.340Z,53.28
2023-03-14T12:06:44.690Z,51.60
2023-03-14T12:11:45.989Z,50.48
2023-03-14T12:16:47.361Z,52.54
2023-03-14T12:21:48.719Z,52.73
2023-03-14T12:26:49.995Z,53.79
2023-03-14T12:31:51.346Z,54.65
2023-03-14T12:36:54.234Z,55.53
2023-03-14T12:41:55.564Z,54.96
2023-03-14T12:46:56.935Z,55.83
2023-03-14T12:51:58.257Z,55.76
2023-03-14T12:56:59.511Z,56.77
2023-03-14T13:02:00.723Z,57.32
2023-03-14T13:07:02.069Z,56.83
2023-03-14T13:12:03.390Z,59.37
2023-03-14T13:17:19.710Z,56.92
2023-03-14T13:22:26.653Z,60.46
2023-03-14T13:27:28.087Z,65.20
2023-03-14T13:32:29.351Z,66.27
2023-03-14T13:37:30.620Z,62.78
2023-03-14T13:42:31.854Z,63.64
2023-03-14T13:47:33.116Z,63.41
2023-03-14T13:52:34.517Z,62.97
2023-03-14T13:57:35.794Z,64.97
2023-03-14T14:02:37.026Z,66.33
2023-03-14T14:07:38.931Z,73.92
2023-03-14T14:12:40.212Z,77.53
2023-03-14T14:17:42.803Z,81.00
2023-03-14T14:22:45.135Z,81.37
2023-03-14T14:27:46.464Z,81.18
2023-03-14T14:32:47.734Z,82.63
2023-03-14T14:37:48.967Z,82.47
2023-03-14T14:42:50.729Z,81.77
2023-03-14T14:47:52.059Z,81.46
2023-03-14T14:52:53.325Z,82.52
2023-03-14T14:57:54.576Z,82.20
2023-03-14T15:02:56.270Z,82.92
2023-03-14T15:07:58.565Z,83.29
2023-03-14T15:12:59.966Z,84.74
2023-03-14T15:18:01.359Z,84.40
2023-03-14T15:23:02.618Z,84.95
2023-03-14T15:28:03.852Z,85.87
2023-03-14T15:33:05.097Z,85.62
2023-03-14T15:38:06.411Z,86.83
2023-03-14T15:43:07.954Z,88.28
2023-03-14T15:48:09.239Z,86.20
2023-03-14T15:53:10.770Z,85.70
2023-03-14T15:58:22.026Z,83.42
2023-03-14T16:03:23.593Z,77.94
2023-03-14T16:08:26.849Z,77.22
2023-03-14T16:13:28.653Z,76.71
2023-03-14T16:18:29.923Z,75.09
2023-03-14T16:23:31.460Z,74.30
2023-03-14T16:28:32.728Z,73.73
2023-03-14T16:33:34.037Z,73.66
2023-03-14T16:38:35.502Z,68.47
2023-03-14T16:43:39.902Z,66.96
2023-03-14T16:48:41.217Z,65.28
2023-03-14T16:53:42.562Z,63.82
2023-03-14T16:58:43.955Z,62.13
2023-03-14T17:03:45.334Z,61.64
2023-03-14T17:08:46.758Z,62.19
2023-03-14T17:13:48.367Z,60.74
2023-03-14T17:18:49.681Z,62.09
2023-03-14T17:23:50.977Z,60.59
2023-03-14T17:28:52.546Z,62.25
2023-03-14T17:33:55.046Z,62.11
2023-03-14T17:38:57.624Z,60.44
2023-03-14T17:43:59.743Z,59.07
2023-03-14T17:49:01.256Z,59.76
2023-03-14T17:54:03.295Z,57.73
2023-03-14T17:59:04.530Z,58.91
2023-03-14T18:04:05.854Z,56.31
2023-03-14T18:09:07.379Z,56.69
2023-03-14T18:14:08.830Z,55.12
2023-03-14T18:19:10.045Z,55.90
2023-03-14T18:24:11.411Z,55.98
2023-03-14T18:29:14.257Z,55.13
2023-03-14T18:34:15.560Z,54.54
2023-03-14T18:39:16.843Z,54.25
2023-03-14T18:44:18.184Z,54.05
2023-03-14T18:49:20.776Z,54.01
2023-03-14T18:54:22.815Z,55.47
2023-03-14T18:59:24.398Z,53.19
2023-03-14T19:04:25.874Z,54.55
2023-03-14T19:09:27.127Z,53.86
2023-03-14T19:14:28.367Z,53.86
2023-03-14T19:19:29.841Z,53.52
2023-03-14T19:24:31.606Z,53.63
2023-03-14T19:29:39.326Z,54.65
2023-03-14T19:34:44.186Z,54.32
2023-03-14T19:39:46.956Z,54.35
2023-03-14T19:44:48.253Z,54.23
2023-03-14T19:49:49.505Z,54.47
2023-03-14T19:54:50.930Z,54.50
2023-03-14T19:59:52.417Z,54.83
2023-03-14T20:04:54.560Z,55.34
2023-03-14T20:09:56.281Z,56.02
2023-03-14T20:14:57.544Z,55.54
2023-03-14T20:19:58.814Z,54.91
2023-03-14T20:25:00.389Z,54.58
2023-03-14T20:30:07.687Z,53.68
2023-03-14T20:35:09.049Z,54.08
2023-03-14T20:40:11.391Z,57.13
2023-03-14T20:45:12.691Z,57.20
2023-03-14T20:50:13.941Z,57.84
2023-03-14T20:55:15.228Z,59.21
2023-03-14T21:00:16.536Z,62.38
2023-03-14T21:05:18.998Z,61.75
2023-03-14T21:10:21.303Z,62.40
2023-03-14T21:15:22.678Z,64.30
2023-03-14T21:20:26.023Z,63.71
2023-03-14T21:25:27.253Z,63.51
2023-03-14T21:30:28.511Z,63.95
2023-03-14T21:35:29.826Z,64.38
2023-03-14T21:40:31.067Z,64.01
2023-03-14T21:45:32.286Z,62.94
2023-03-14T21:50:34.533Z,64.55
2023-03-14T21:55:35.808Z,62.98
2023-03-14T22:00:37.061Z,63.60
2023-03-14T22:05:38.340Z,63.53
2023-03-14T22:10:39.984Z,64.86
2023-03-14T22:15:41.278Z,64.51
2023-03-14T22:20:42.655Z,64.16
2023-03-14T22:25:44.096Z,63.22
2023-03-14T22:30:48.615Z,61.95
2023-03-14T22:35:50.111Z,62.35
2023-03-14T22:40:51.420Z,62.83
2023-03-14T22:45:52.685Z,63.04
2023-03-14T22:50:53.927Z,63.27
2023-03-14T22:55:55.128Z,63.70
2023-03-14T23:00:56.491Z,64.81
2023-03-14T23:05:57.762Z,64.83
2023-03-14T23:10:59.009Z,64.61
2023-03-14T23:16:01.216Z,64.28
2023-03-14T23:21:02.449Z,64.83
2023-03-14T23:26:03.843Z,66.42
2023-03-14T23:31:06.427Z,67.07
2023-03-14T23:36:07.807Z,71.30
2023-03-14T23:41:09.167Z,74.37
2023-03-14T23:46:10.509Z,74.92
2023-03-14T23:51:11.804Z,76.64
2023-03-14T23:56:13.545Z,76.79
